Thunder radar more information blitzortung!


Radar de pluja more information rain snow radar


Visita la nostra xarxa de llocs de meteo:

Template documentation
and downloads

And another site



No particular awareness of the weather is required.    There are no Weather-warnings

Pagina Historial Weather Underground text

Diari Resum Abril 29, 2016 Unitats:  Mètric    Imperial   Tant
« Previous Dia
SegĂźent Dia »
Diari Setmana Mensual Anual Personalitzada
  Maxima: Minima: Media:
Temperatura: 19.8 °C 8.3 °C 14.4 °C
Punt de rosada: 11.1 °C 6.0 °C 7.9 °C
Humitat: 87 % 47 % 66 %
Wind Speed: 22.2 km/h 0.0 km/h 7 km/h
RĂ fegues de vent: 22.2 km/h - -
Vent:- - SSW
Pression baro: 1020.9 hPa 1016.8 hPa -
Precipitacions: 0.0 mm    
Historical Graphs
 
 
Dades de taula per Abril 29, 2016
Temps Temperatura Punt de rosada Pression baro Vent Wind Speed RĂ fegues de vent Humitat Rainfall Rate (Hourly)
00:03 10.7 °C 7.8 °C 1017.8 hPa WSW 2.3 km/h 2.3 km/h 82 % 0.0 mm
00:05 9.2 °C 6.8 °C 1017.8 hPa Calm     85 % 0.0 mm
00:08 10.6 °C 7.7 °C 1017.8 hPa West 3.7 km/h 3.7 km/h 82 % 0.0 mm
00:13 10.6 °C 7.7 °C 1017.8 hPa WSW 3.7 km/h 3.7 km/h 82 % 0.0 mm
00:15 9.1 °C 6.7 °C 1018.8 hPa Calm     85 % 0.0 mm
00:25 9.1 °C 6.7 °C 1018.8 hPa Calm     85 % 0.0 mm
00:35 8.7 °C 6.2 °C 1018.8 hPa West 3.2 km/h 3.2 km/h 84 % 0.0 mm
00:45 8.6 °C 6.2 °C 1018.8 hPa Calm   3.2 km/h 85 % 0.0 mm
00:55 8.5 °C 6.1 °C 1018.8 hPa WSW 1.6 km/h 3.2 km/h 85 % 0.0 mm
01:05 8.5 °C 6.3 °C 1018.8 hPa Calm   1.6 km/h 86 % 0.0 mm
01:15 8.5 °C 6.4 °C 1018.8 hPa Calm     87 % 0.0 mm
01:25 8.6 °C 6.6 °C 1018.8 hPa Calm     87 % 0.0 mm
01:35 8.3 °C 6.1 °C 1018.8 hPa Calm   3.2 km/h 86 % 0.0 mm
01:45 8.4 °C 6.2 °C 1018.8 hPa WSW 1.6 km/h 3.2 km/h 86 % 0.0 mm
01:55 8.6 °C 6.6 °C 1018.8 hPa Calm     87 % 0.0 mm
02:05 8.7 °C 6.5 °C 1018.8 hPa Calm   3.2 km/h 86 % 0.0 mm
02:15 8.9 °C 6.7 °C 1018.8 hPa Calm   3.2 km/h 86 % 0.0 mm
02:25 9.1 °C 6.9 °C 1018.8 hPa Calm   1.6 km/h 86 % 0.0 mm
02:35 9.2 °C 7.2 °C 1018.8 hPa Calm     87 % 0.0 mm
02:45 9.1 °C 6.9 °C 1018.8 hPa Calm   1.6 km/h 86 % 0.0 mm
02:55 9.2 °C 7.0 °C 1018.8 hPa West 1.6 km/h 3.2 km/h 86 % 0.0 mm
03:05 9.2 °C 7.0 °C 1019.9 hPa WSW 3.2 km/h 3.2 km/h 86 % 0.0 mm
03:35 9.8 °C 7.4 °C 1019.9 hPa SW 3.2 km/h 3.2 km/h 85 % 0.0 mm
03:45 10.2 °C 7.9 °C 1019.9 hPa Calm   3.2 km/h 86 % 0.0 mm
03:55 10.8 °C 8.4 °C 1019.9 hPa SW 1.6 km/h 3.2 km/h 85 % 0.0 mm
04:05 12.1 °C 9.5 °C 1019.9 hPa South 3.2 km/h 4.8 km/h 84 % 0.0 mm
04:15 12.3 °C 9.3 °C 1019.9 hPa Calm   3.2 km/h 82 % 0.0 mm
04:25 12.2 °C 9.2 °C 1019.9 hPa ESE 1.6 km/h 1.6 km/h 82 % 0.0 mm
04:35 12.0 °C 8.8 °C 1019.9 hPa South 3.2 km/h 4.8 km/h 81 % 0.0 mm
04:45 12.1 °C 8.6 °C 1019.9 hPa SSW 1.6 km/h 6.4 km/h 79 % 0.0 mm
04:55 12.0 °C 8.7 °C 1019.9 hPa South 1.6 km/h 3.2 km/h 80 % 0.0 mm
05:05 12.2 °C 8.7 °C 1020.9 hPa Calm   3.2 km/h 79 % 0.0 mm
05:15 12.8 °C 9.2 °C 1020.9 hPa East 1.6 km/h 4.8 km/h 79 % 0.0 mm
05:25 13.1 °C 9.3 °C 1020.9 hPa ENE 4.8 km/h 6.4 km/h 78 % 0.0 mm
05:35 13.8 °C 9.8 °C 1020.9 hPa ENE 4.8 km/h 6.4 km/h 77 % 0.0 mm
05:45 14.8 °C 10.6 °C 1020.9 hPa ENE 1.6 km/h 4.8 km/h 76 % 0.0 mm
10:52 14.8 °C 10.4 °C 1020.9 hPa West 5.6 km/h 5.6 km/h 75 % 0.0 mm
10:57 15.0 °C 10.2 °C 1019.9 hPa NNE 1.9 km/h 1.9 km/h 73 % 0.0 mm
11:02 15.4 °C 10.6 °C 1019.9 hPa NE 7.4 km/h 7.4 km/h 73 % 0.0 mm
11:07 15.8 °C 10.8 °C 1019.9 hPa ESE 7.4 km/h 7.4 km/h 72 % 0.0 mm
11:12 15.6 °C 10.2 °C 1020.9 hPa East 7.4 km/h 7.4 km/h 70 % 0.0 mm
11:17 15.5 °C 10.3 °C 1020.9 hPa SW 3.7 km/h 5.3 km/h 71 % 0.0 mm
11:22 15.7 °C 10.2 °C 1020.9 hPa ESE 9.3 km/h 9.3 km/h 70 % 0.0 mm
11:32 16.4 °C 11.1 °C 1019.9 hPa South 3.7 km/h 3.7 km/h 71 % 0.0 mm
11:37 16.6 °C 10.9 °C 1019.9 hPa East 3.7 km/h 3.7 km/h 69 % 0.0 mm
11:42 16.6 °C 10.7 °C 1019.9 hPa South 3.5 km/h 3.5 km/h 68 % 0.0 mm
11:47 16.3 °C 9.2 °C 1019.9 hPa SSE 11.1 km/h 11.1 km/h 63 % 0.0 mm
11:52 16.6 °C 9.8 °C 1019.9 hPa ESE 5.0 km/h 5.0 km/h 64 % 0.0 mm
11:57 16.6 °C 9.5 °C 1019.9 hPa SW 5.8 km/h 5.8 km/h 63 % 0.0 mm
12:02 16.8 °C 9.2 °C 1019.9 hPa WSW 11.1 km/h 11.1 km/h 61 % 0.0 mm
12:07 17.2 °C 9.4 °C 1019.9 hPa WSW 7.4 km/h 7.4 km/h 60 % 0.0 mm
12:12 17.1 °C 9.3 °C 1019.9 hPa ESE 7.4 km/h 7.4 km/h 60 % 0.0 mm
12:17 17.2 °C 8.8 °C 1019.9 hPa SSE 8.7 km/h 8.7 km/h 58 % 0.0 mm
12:22 17.6 °C 9.2 °C 1019.9 hPa SW 7.4 km/h 7.4 km/h 58 % 0.0 mm
12:27 18.3 °C 9.6 °C 1019.9 hPa ENE 11.1 km/h 11.1 km/h 57 % 0.0 mm
12:32 18.1 °C 9.7 °C 1019.9 hPa WSW 7.9 km/h 7.9 km/h 58 % 0.0 mm
12:37 18.3 °C 9.6 °C 1019.9 hPa SSE 5.6 km/h 5.6 km/h 57 % 0.0 mm
12:42 17.7 °C 9.1 °C 1019.9 hPa SSE 5.6 km/h 5.6 km/h 57 % 0.0 mm
12:47 18.3 °C 9.6 °C 1019.9 hPa SSE 7.6 km/h 7.6 km/h 57 % 0.0 mm
12:52 17.9 °C 9.3 °C 1019.9 hPa SSW 9.3 km/h 9.3 km/h 57 % 0.0 mm
12:57 17.7 °C 8.8 °C 1018.8 hPa SSE 7.4 km/h 7.4 km/h 56 % 0.0 mm
13:02 18.0 °C 9.3 °C 1018.8 hPa SSW 7.9 km/h 7.9 km/h 57 % 0.0 mm
13:07 17.6 °C 9.2 °C 1018.8 hPa SE 6.9 km/h 6.9 km/h 58 % 0.0 mm
13:12 17.5 °C 9.2 °C 1019.9 hPa ESE 13.0 km/h 13.0 km/h 58 % 0.0 mm
13:17 17.6 °C 9.2 °C 1019.9 hPa East 13.0 km/h 13.0 km/h 58 % 0.0 mm
13:22 17.3 °C 8.9 °C 1019.9 hPa SW 9.3 km/h 9.3 km/h 58 % 0.0 mm
13:27 17.9 °C 9.3 °C 1019.9 hPa ESE 7.4 km/h 7.4 km/h 57 % 0.0 mm
13:32 18.0 °C 9.6 °C 1019.9 hPa West 5.6 km/h 5.6 km/h 58 % 0.0 mm
13:37 18.4 °C 9.7 °C 1019.9 hPa WSW 5.6 km/h 5.6 km/h 57 % 0.0 mm
13:42 18.5 °C 9.6 °C 1019.9 hPa SW 13.0 km/h 13.0 km/h 56 % 0.0 mm
13:47 18.6 °C 9.4 °C 1019.9 hPa SW 7.4 km/h 7.4 km/h 55 % 0.0 mm
13:52 18.4 °C 9.2 °C 1019.9 hPa WSW 9.0 km/h 9.0 km/h 55 % 0.0 mm
13:57 18.0 °C 8.6 °C 1018.8 hPa SSW 5.6 km/h 5.6 km/h 54 % 0.0 mm
14:02 18.4 °C 9.2 °C 1018.8 hPa SW 5.8 km/h 5.8 km/h 55 % 0.0 mm
14:07 18.4 °C 8.7 °C 1018.8 hPa ESE 7.4 km/h 7.4 km/h 53 % 0.0 mm
14:12 18.4 °C 9.2 °C 1018.8 hPa South 3.7 km/h 3.7 km/h 55 % 0.0 mm
14:17 18.8 °C 9.3 °C 1018.8 hPa SW 9.3 km/h 9.3 km/h 54 % 0.0 mm
14:22 19.2 °C 8.8 °C 1018.8 hPa SSE 9.3 km/h 9.3 km/h 51 % 0.0 mm
14:32 19.1 °C 8.7 °C 1018.8 hPa SSW 14.8 km/h 14.8 km/h 51 % 0.0 mm
14:37 19.4 °C 9.0 °C 1018.8 hPa West 13.0 km/h 13.0 km/h 51 % 0.0 mm
14:42 19.5 °C 9.1 °C 1018.8 hPa WNW 7.4 km/h 7.4 km/h 51 % 0.0 mm
14:47 19.1 °C 8.1 °C 1018.8 hPa SW 11.1 km/h 11.1 km/h 49 % 0.0 mm
14:52 18.9 °C 8.6 °C 1018.8 hPa SW 9.3 km/h 9.3 km/h 51 % 0.0 mm
14:57 19.2 °C 8.5 °C 1018.8 hPa WSW 9.0 km/h 9.0 km/h 50 % 0.0 mm
15:02 19.8 °C 9.1 °C 1018.8 hPa SW 7.4 km/h 7.4 km/h 50 % 0.0 mm
15:07 19.8 °C 9.1 °C 1018.8 hPa SSW 11.1 km/h 11.1 km/h 50 % 0.0 mm
15:12 19.5 °C 8.2 °C 1018.8 hPa SSW 11.1 km/h 11.1 km/h 48 % 0.0 mm
15:17 19.2 °C 7.9 °C 1018.8 hPa SW 13.0 km/h 13.0 km/h 48 % 0.0 mm
15:22 19.7 °C 8.4 °C 1018.8 hPa SW 11.1 km/h 11.1 km/h 48 % 0.0 mm
15:27 19.5 °C 8.2 °C 1018.8 hPa WSW 20.4 km/h 20.4 km/h 48 % 0.0 mm
15:32 19.7 °C 8.4 °C 1018.8 hPa WSW 14.8 km/h 14.8 km/h 48 % 0.0 mm
15:37 19.3 °C 8.0 °C 1018.8 hPa SSW 11.1 km/h 11.1 km/h 48 % 0.0 mm
15:42 19.4 °C 8.1 °C 1018.8 hPa WSW 7.4 km/h 7.4 km/h 48 % 0.0 mm
15:47 19.6 °C 8.3 °C 1018.8 hPa SSE 7.4 km/h 7.4 km/h 48 % 0.0 mm
15:52 19.7 °C 8.4 °C 1018.8 hPa SW 11.1 km/h 11.1 km/h 48 % 0.0 mm
16:02 19.4 °C 8.1 °C 1018.8 hPa South 13.0 km/h 13.0 km/h 48 % 0.0 mm
16:07 19.7 °C 8.4 °C 1018.8 hPa SSW 14.8 km/h 14.8 km/h 48 % 0.0 mm
16:12 19.7 °C 8.4 °C 1018.8 hPa SW 9.3 km/h 9.3 km/h 48 % 0.0 mm
16:17 19.7 °C 8.4 °C 1018.8 hPa SW 14.8 km/h 14.8 km/h 48 % 0.0 mm
16:22 19.6 °C 8.3 °C 1018.8 hPa SSW 11.1 km/h 11.1 km/h 48 % 0.0 mm
16:27 19.1 °C 7.5 °C 1018.8 hPa WSW 13.7 km/h 13.7 km/h 47 % 0.0 mm
16:32 18.9 °C 7.7 °C 1018.8 hPa West 13.0 km/h 13.0 km/h 48 % 0.0 mm
16:38 18.8 °C 7.6 °C 1018.8 hPa West 16.9 km/h 16.9 km/h 48 % 0.0 mm
16:43 18.4 °C 7.2 °C 1018.8 hPa SW 13.0 km/h 13.0 km/h 48 % 0.0 mm
16:48 18.6 °C 7.4 °C 1018.8 hPa SSW 13.0 km/h 13.0 km/h 48 % 0.0 mm
16:53 18.8 °C 7.2 °C 1018.8 hPa SSW 20.4 km/h 20.4 km/h 47 % 0.0 mm
16:58 18.4 °C 6.9 °C 1018.8 hPa SSW 18.5 km/h 18.5 km/h 47 % 0.0 mm
17:03 18.2 °C 6.7 °C 1018.8 hPa SSW 15.8 km/h 15.8 km/h 47 % 0.0 mm
17:08 18.2 °C 6.7 °C 1018.8 hPa WSW 22.2 km/h 22.2 km/h 47 % 0.0 mm
17:13 18.0 °C 6.5 °C 1018.8 hPa South 16.7 km/h 16.7 km/h 47 % 0.0 mm
17:18 17.8 °C 6.3 °C 1018.8 hPa SW 14.8 km/h 14.8 km/h 47 % 0.0 mm
17:23 17.7 °C 6.2 °C 1018.8 hPa SSW 14.8 km/h 14.8 km/h 47 % 0.0 mm
17:28 17.7 °C 6.6 °C 1018.8 hPa SSW 14.8 km/h 14.8 km/h 48 % 0.0 mm
17:33 17.6 °C 6.4 °C 1018.8 hPa SW 14.8 km/h 14.8 km/h 48 % 0.0 mm
17:38 17.1 °C 6.0 °C 1018.8 hPa SSW 22.2 km/h 22.2 km/h 48 % 0.0 mm
17:43 16.8 °C 6.6 °C 1018.8 hPa SSW 16.7 km/h 16.7 km/h 51 % 0.0 mm
17:48 16.9 °C 6.7 °C 1018.8 hPa SW 11.1 km/h 11.1 km/h 51 % 0.0 mm
17:53 16.6 °C 6.7 °C 1018.8 hPa WSW 16.7 km/h 16.7 km/h 52 % 0.0 mm
17:58 16.7 °C 6.8 °C 1018.8 hPa West 16.7 km/h 16.7 km/h 52 % 0.0 mm
18:03 16.7 °C 7.1 °C 1018.8 hPa South 18.5 km/h 18.5 km/h 53 % 0.0 mm
18:08 16.6 °C 7.0 °C 1018.8 hPa SW 18.5 km/h 18.5 km/h 53 % 0.0 mm
18:13 16.5 °C 7.2 °C 1018.8 hPa WSW 16.7 km/h 16.7 km/h 54 % 0.0 mm
18:18 16.2 °C 6.9 °C 1018.8 hPa SW 16.7 km/h 16.7 km/h 54 % 0.0 mm
18:23 16.1 °C 7.1 °C 1018.8 hPa WSW 9.3 km/h 9.3 km/h 55 % 0.0 mm
18:28 16.0 °C 7.2 °C 1017.8 hPa SSW 16.7 km/h 16.7 km/h 56 % 0.0 mm
18:33 15.8 °C 7.1 °C 1017.8 hPa South 13.0 km/h 13.0 km/h 56 % 0.0 mm
18:38 15.9 °C 7.1 °C 1017.8 hPa SW 9.7 km/h 9.7 km/h 56 % 0.0 mm
18:43 15.7 °C 6.9 °C 1018.8 hPa SW 13.0 km/h 13.0 km/h 56 % 0.0 mm
18:48 15.8 °C 7.3 °C 1018.8 hPa SSW 7.4 km/h 7.4 km/h 57 % 0.0 mm
18:53 15.8 °C 7.3 °C 1018.8 hPa SW 13.0 km/h 13.0 km/h 57 % 0.0 mm
18:58 15.8 °C 7.6 °C 1018.8 hPa SW 13.0 km/h 13.0 km/h 58 % 0.0 mm
19:03 15.7 °C 7.4 °C 1018.8 hPa WSW 13.0 km/h 13.0 km/h 58 % 0.0 mm
19:13 15.4 °C 7.4 °C 1017.8 hPa WSW 22.2 km/h 22.2 km/h 59 % 0.0 mm
19:15 11.6 °C 7.5 °C 1018.8 hPa West 1.6 km/h 3.2 km/h 76 % 0.0 mm
19:18 15.2 °C 7.5 °C 1017.8 hPa SSW 13.0 km/h 13.0 km/h 60 % 0.0 mm
19:23 15.1 °C 7.4 °C 1017.8 hPa SSE 20.4 km/h 20.4 km/h 60 % 0.0 mm
19:25 11.6 °C 7.3 °C 1018.8 hPa Calm     75 % 0.0 mm
19:28 15.1 °C 7.6 °C 1017.8 hPa South 11.1 km/h 11.1 km/h 61 % 0.0 mm
19:33 15.1 °C 7.6 °C 1017.8 hPa West 18.5 km/h 18.5 km/h 61 % 0.0 mm
19:35 11.6 °C 7.5 °C 1018.8 hPa Calm     76 % 0.0 mm
19:38 15.0 °C 7.6 °C 1017.8 hPa West 14.8 km/h 14.8 km/h 61 % 0.0 mm
19:43 14.8 °C 7.3 °C 1017.8 hPa SSW 13.0 km/h 13.0 km/h 61 % 0.0 mm
19:45 11.6 °C 7.5 °C 1018.8 hPa Calm     76 % 0.0 mm
19:48 14.7 °C 7.5 °C 1017.8 hPa SSW 13.0 km/h 13.0 km/h 62 % 0.0 mm
19:53 14.6 °C 7.6 °C 1017.8 hPa SW 9.3 km/h 9.3 km/h 63 % 0.0 mm
19:55 11.5 °C 7.6 °C 1018.8 hPa Calm     77 % 0.0 mm
19:58 14.5 °C 7.6 °C 1017.8 hPa SW 9.3 km/h 9.3 km/h 63 % 0.0 mm
20:03 14.3 °C 7.6 °C 1017.8 hPa WSW 18.5 km/h 18.5 km/h 64 % 0.0 mm
20:05 11.5 °C 7.6 °C 1018.8 hPa Calm     77 % 0.0 mm
20:08 14.1 °C 7.4 °C 1017.8 hPa SW 16.7 km/h 16.7 km/h 64 % 0.0 mm
20:13 14.0 °C 7.5 °C 1018.8 hPa SSW 9.3 km/h 9.3 km/h 65 % 0.0 mm
20:15 11.3 °C 7.4 °C 1018.8 hPa Calm     77 % 0.0 mm
20:18 13.9 °C 7.7 °C 1018.8 hPa SW 13.0 km/h 13.0 km/h 66 % 0.0 mm
20:23 13.8 °C 7.6 °C 1018.8 hPa SW 9.3 km/h 9.3 km/h 66 % 0.0 mm
20:25 11.4 °C 7.3 °C 1018.8 hPa SW 1.6 km/h 3.2 km/h 76 % 0.0 mm
20:28 13.7 °C 7.4 °C 1018.8 hPa SW 17.5 km/h 17.5 km/h 66 % 0.0 mm
20:33 13.7 °C 7.4 °C 1018.8 hPa WSW 14.8 km/h 14.8 km/h 66 % 0.0 mm
20:35 11.3 °C 7.2 °C 1018.8 hPa Calm   1.6 km/h 76 % 0.0 mm
20:38 13.6 °C 7.4 °C 1018.8 hPa SSW 14.8 km/h 14.8 km/h 66 % 0.0 mm
20:43 13.5 °C 7.5 °C 1018.8 hPa SW 13.0 km/h 13.0 km/h 67 % 0.0 mm
20:45 11.1 °C 7.2 °C 1018.8 hPa Calm   3.2 km/h 77 % 0.0 mm
20:48 13.5 °C 7.5 °C 1018.8 hPa WSW 14.8 km/h 14.8 km/h 67 % 0.0 mm
20:53 13.4 °C 7.4 °C 1018.8 hPa WSW 9.3 km/h 9.3 km/h 67 % 0.0 mm
20:55 11.0 °C 7.1 °C 1018.8 hPa Calm   3.2 km/h 77 % 0.0 mm
20:58 13.3 °C 7.5 °C 1018.8 hPa West 7.4 km/h 7.4 km/h 68 % 0.0 mm
21:03 13.3 °C 7.5 °C 1018.8 hPa SSW 9.3 km/h 9.3 km/h 68 % 0.0 mm
21:05 10.8 °C 6.9 °C 1018.8 hPa SW 3.2 km/h 3.2 km/h 77 % 0.0 mm
21:08 13.2 °C 7.4 °C 1018.8 hPa SSW 9.3 km/h 9.3 km/h 68 % 0.0 mm
21:13 13.1 °C 7.6 °C 1018.8 hPa SSW 11.1 km/h 11.1 km/h 69 % 0.0 mm
21:15 10.8 °C 7.1 °C 1018.8 hPa SW 1.6 km/h 4.8 km/h 78 % 0.0 mm
21:18 13.0 °C 7.4 °C 1018.8 hPa West 5.6 km/h 5.6 km/h 69 % 0.0 mm
21:23 13.0 °C 7.4 °C 1018.8 hPa WSW 9.3 km/h 9.3 km/h 69 % 0.0 mm
21:25 10.7 °C 7.0 °C 1018.8 hPa SW 3.2 km/h 3.2 km/h 78 % 0.0 mm
21:28 12.9 °C 7.3 °C 1018.8 hPa SW 2.3 km/h   69 % 0.0 mm
21:33 12.8 °C 7.3 °C 1018.8 hPa SW 3.7 km/h 3.7 km/h 69 % 0.0 mm
21:35 10.7 °C 7.2 °C 1018.8 hPa SW 1.6 km/h 3.2 km/h 79 % 0.0 mm
21:38 12.7 °C 7.2 °C 1018.8 hPa WSW 3.7 km/h   69 % 0.0 mm
21:43 12.6 °C 7.3 °C 1018.8 hPa SW 1.9 km/h   70 % 0.0 mm
21:45 10.8 °C 7.3 °C 1017.8 hPa Calm   1.6 km/h 79 % 0.0 mm
21:48 12.6 °C 7.1 °C 1018.8 hPa SW 3.7 km/h 3.9 km/h 69 % 0.0 mm
21:53 12.5 °C 7.2 °C 1018.8 hPa WSW 3.7 km/h 3.7 km/h 70 % 0.0 mm
21:55 10.8 °C 7.5 °C 1017.8 hPa Calm   1.6 km/h 80 % 0.0 mm
21:58 12.4 °C 7.1 °C 1019.9 hPa SW 3.5 km/h 3.5 km/h 70 % 0.0 mm
22:05 10.9 °C 7.6 °C 1016.8 hPa NNW 1.6 km/h 1.6 km/h 80 % 0.0 mm
22:08 12.4 °C 7.3 °C 1019.9 hPa WSW 1.9 km/h 1.9 km/h 71 % 0.0 mm
22:13 12.3 °C 7.4 °C 1018.8 hPa Calm     72 % 0.0 mm
22:15 10.6 °C 7.3 °C 1017.8 hPa ENE 1.6 km/h 3.2 km/h 80 % 0.0 mm
22:18 12.2 °C 7.3 °C 1018.8 hPa Calm     72 % 0.0 mm
22:23 12.2 °C 7.3 °C 1018.8 hPa Calm     72 % 0.0 mm
22:25 10.5 °C 7.0 °C 1017.8 hPa NE 1.6 km/h 3.2 km/h 79 % 0.0 mm
22:33 12.0 °C 7.3 °C 1018.8 hPa Calm     73 % 0.0 mm
22:35 10.5 °C 7.0 °C 1016.8 hPa Calm   1.6 km/h 79 % 0.0 mm
22:38 12.0 °C 7.3 °C 1018.8 hPa Calm     73 % 0.0 mm
22:43 11.9 °C 7.2 °C 1018.8 hPa Calm     73 % 0.0 mm
22:45 10.5 °C 7.0 °C 1017.8 hPa Calm     79 % 0.0 mm
22:48 11.9 °C 7.4 °C 1018.8 hPa Calm     74 % 0.0 mm
22:53 11.9 °C 7.4 °C 1018.8 hPa Calm     74 % 0.0 mm
22:55 10.6 °C 7.1 °C 1017.8 hPa Calm   1.6 km/h 79 % 0.0 mm
22:58 11.9 °C 7.4 °C 1019.9 hPa WNW 1.9 km/h   74 % 0.0 mm
23:03 11.9 °C 7.4 °C 1019.9 hPa WSW 3.7 km/h   74 % 0.0 mm
23:05 10.6 °C 7.1 °C 1017.8 hPa Calm     79 % 0.0 mm
23:09 11.9 °C 7.4 °C 1019.9 hPa WSW 2.6 km/h   74 % 0.0 mm
23:14 11.9 °C 7.4 °C 1019.9 hPa WSW 1.9 km/h   74 % 0.0 mm
23:15 10.7 °C 7.2 °C 1017.8 hPa Calm     79 % 0.0 mm
23:19 11.8 °C 7.5 °C 1019.9 hPa Calm     75 % 0.0 mm
23:24 11.8 °C 7.5 °C 1019.9 hPa Calm     75 % 0.0 mm
23:25 10.7 °C 7.2 °C 1017.8 hPa Calm   1.6 km/h 79 % 0.0 mm
23:29 11.7 °C 7.4 °C 1018.8 hPa Calm     75 % 0.0 mm
23:34 11.7 °C 7.4 °C 1018.8 hPa Calm     75 % 0.0 mm
23:35 10.6 °C 7.1 °C 1017.8 hPa Calm   1.6 km/h 79 % 0.0 mm
23:44 11.7 °C 7.4 °C 1018.8 hPa West 1.9 km/h 1.9 km/h 75 % 0.0 mm
23:45 10.5 °C 7.0 °C 1017.8 hPa Calm     79 % 0.0 mm
23:49 11.7 °C 7.4 °C 1018.8 hPa WSW 3.2 km/h 3.2 km/h 75 % 0.0 mm
23:54 11.8 °C 7.5 °C 1018.8 hPa WSW 3.7 km/h 3.7 km/h 75 % 0.0 mm
23:55 10.6 °C 7.3 °C 1017.8 hPa Calm     80 % 0.0 mm
23:59 11.8 °C 7.5 °C 1018.8 hPa West 3.7 km/h 3.7 km/h 75 % 0.0 mm
Meteo Sesrovires
Elogis d' Weather Underground - 3.75 mb

Guio original per  Jim McMurry - jmcmurry@mwt.net Adaptat per a la plantilla per  Wim van der Kuil - Leuven-Template.eu

Trobareu la nostra informacio del temps tambe a:

Weather Underground

AWEKAS